createdAt,value
2022-12-15T00:02:27.998Z,-2.93
2022-12-15T00:05:14.609Z,-2.95
2022-12-15T00:08:01.329Z,-2.98
2022-12-15T00:10:47.830Z,-3.01
2022-12-15T00:13:34.954Z,-3.08
2022-12-15T00:16:21.543Z,-3.07
2022-12-15T00:19:07.782Z,-3.06
2022-12-15T00:21:54.214Z,-3.03
2022-12-15T00:24:40.654Z,-2.98
2022-12-15T00:27:26.885Z,-2.92
2022-12-15T00:30:13.243Z,-2.86
2022-12-15T00:32:59.496Z,-2.83
2022-12-15T00:35:45.989Z,-2.83
2022-12-15T00:38:33.394Z,-2.86
2022-12-15T00:41:01.889Z,-2.87
2022-12-15T00:43:31.494Z,-2.89
2022-12-15T00:46:15.468Z,-2.89
2022-12-15T00:48:43.812Z,-2.89
2022-12-15T00:51:12.759Z,-2.88
2022-12-15T00:54:00.022Z,-2.88
2022-12-15T00:56:46.684Z,-2.91
2022-12-15T00:59:33.866Z,-2.92
2022-12-15T01:02:21.835Z,-2.91
2022-12-15T01:05:08.388Z,-2.91
2022-12-15T01:07:54.491Z,-2.93
2022-12-15T01:10:41.158Z,-2.93
2022-12-15T01:13:32.342Z,-2.94
2022-12-15T01:16:19.050Z,-2.89
2022-12-15T01:19:05.434Z,-2.85
2022-12-15T01:21:33.559Z,-2.79
2022-12-15T01:24:01.621Z,-2.73
2022-12-15T01:26:30.177Z,-2.69
2022-12-15T01:28:58.267Z,-2.66
2022-12-15T01:31:26.396Z,-2.64
2022-12-15T01:33:54.799Z,-2.67
2022-12-15T01:36:22.879Z,-2.67
2022-12-15T01:38:54.351Z,-2.66
2022-12-15T01:41:23.292Z,-2.66
2022-12-15T01:43:51.456Z,-2.64
2022-12-15T01:46:21.811Z,-2.60
2022-12-15T01:48:57.293Z,-2.56
2022-12-15T01:54:38.039Z,-2.42
2022-12-15T01:57:13.931Z,-2.34
2022-12-15T01:59:48.348Z,-2.27
2022-12-15T02:02:17.927Z,-2.23
2022-12-15T02:04:48.569Z,-2.19
2022-12-15T02:07:17.611Z,-2.16
2022-12-15T02:09:48.833Z,-2.14
2022-12-15T02:12:28.167Z,-2.14
2022-12-15T02:15:09.248Z,-2.16
2022-12-15T02:17:45.512Z,-2.19
2022-12-15T02:20:51.548Z,-2.20
2022-12-15T02:23:47.917Z,-2.25
2022-12-15T02:26:51.687Z,-2.27
2022-12-15T02:29:47.466Z,-2.28
2022-12-15T02:32:21.350Z,-2.30
2022-12-15T02:34:55.672Z,-2.28
2022-12-15T02:37:28.911Z,-2.25
2022-12-15T02:39:57.474Z,-2.21
2022-12-15T02:42:29.209Z,-2.19
2022-12-15T02:45:00.819Z,-2.18
2022-12-15T02:47:35.431Z,-2.13
2022-12-15T02:50:24.873Z,-2.08
2022-12-15T02:53:02.767Z,-2.03
2022-12-15T02:55:41.581Z,-1.99
2022-12-15T02:58:19.803Z,-1.95
2022-12-15T03:00:54.410Z,-1.93
2022-12-15T03:03:24.925Z,-1.90
2022-12-15T03:05:54.688Z,-1.90
2022-12-15T03:08:23.473Z,-1.89
2022-12-15T03:10:54.564Z,-1.87
2022-12-15T03:13:24.835Z,-1.85
2022-12-15T03:15:53.939Z,-1.84
2022-12-15T03:18:22.410Z,-1.84
2022-12-15T03:20:51.815Z,-1.84
2022-12-15T03:23:22.649Z,-1.84
2022-12-15T03:25:51.069Z,-1.84
2022-12-15T03:28:19.410Z,-1.83
2022-12-15T03:30:50.225Z,-1.82
2022-12-15T03:33:19.283Z,-1.79
2022-12-15T03:35:47.732Z,-1.77
2022-12-15T03:38:16.109Z,-1.73
2022-12-15T03:40:44.639Z,-1.69
2022-12-15T03:43:12.930Z,-1.68
2022-12-15T03:45:41.421Z,-1.65
2022-12-15T03:48:09.939Z,-1.65
2022-12-15T03:50:38.688Z,-1.65
2022-12-15T03:53:07.110Z,-1.65
2022-12-15T03:55:35.826Z,-1.66
2022-12-15T03:58:04.183Z,-1.67
2022-12-15T04:00:33.070Z,-1.69
2022-12-15T04:03:01.694Z,-1.70
2022-12-15T04:05:32.903Z,-1.71
2022-12-15T04:08:02.076Z,-1.70
2022-12-15T04:10:34.662Z,-1.70
2022-12-15T04:13:05.844Z,-1.70
2022-12-15T04:15:34.715Z,-1.70
2022-12-15T04:18:05.045Z,-1.68
2022-12-15T04:20:33.837Z,-1.66
2022-12-15T04:23:02.215Z,-1.65
2022-12-15T04:25:48.621Z,-1.65
2022-12-15T04:28:35.233Z,-1.64
2022-12-15T04:31:26.272Z,-1.62
2022-12-15T04:34:16.431Z,-1.59
2022-12-15T04:37:04.947Z,-1.53
2022-12-15T04:39:53.735Z,-1.50
2022-12-15T04:42:40.782Z,-1.45
2022-12-15T04:45:30.743Z,-1.42
2022-12-15T04:48:18.377Z,-1.40
2022-12-15T04:51:05.187Z,-1.40
2022-12-15T04:53:52.202Z,-1.40
2022-12-15T04:56:38.816Z,-1.40
2022-12-15T04:59:25.488Z,-1.40
2022-12-15T05:02:12.329Z,-1.42
2022-12-15T05:04:59.403Z,-1.44
2022-12-15T05:07:45.958Z,-1.47
2022-12-15T05:10:32.469Z,-1.52
2022-12-15T05:13:24.107Z,-1.56
2022-12-15T05:16:10.932Z,-1.58
2022-12-15T05:18:57.720Z,-1.59
2022-12-15T05:21:44.334Z,-1.59
2022-12-15T05:24:31.137Z,-1.60
2022-12-15T05:27:17.744Z,-1.59
2022-12-15T05:30:04.406Z,-1.56
2022-12-15T05:32:33.397Z,-1.51
2022-12-15T05:35:01.940Z,-1.49
2022-12-15T05:37:30.431Z,-1.49
2022-12-15T05:39:58.901Z,-1.46
2022-12-15T05:42:27.148Z,-1.45
2022-12-15T05:44:55.569Z,-1.46
2022-12-15T05:47:24.036Z,-1.49
2022-12-15T05:49:52.420Z,-1.49
2022-12-15T05:52:20.765Z,-1.50
2022-12-15T05:54:49.191Z,-1.53
2022-12-15T05:57:17.624Z,-1.57
2022-12-15T05:59:46.043Z,-1.57
2022-12-15T06:02:14.492Z,-1.56
2022-12-15T06:04:43.068Z,-1.54
2022-12-15T06:07:11.594Z,-1.53
2022-12-15T06:09:39.977Z,-1.55
2022-12-15T06:12:08.475Z,-1.57
2022-12-15T06:14:37.313Z,-1.57
2022-12-15T06:17:05.729Z,-1.57
2022-12-15T06:19:34.331Z,-1.56
2022-12-15T06:22:02.797Z,-1.54
2022-12-15T06:24:31.173Z,-1.54
2022-12-15T06:26:59.721Z,-1.53
2022-12-15T06:29:28.274Z,-1.51
2022-12-15T06:31:56.754Z,-1.49
2022-12-15T06:34:26.028Z,-1.49
2022-12-15T06:36:54.357Z,-1.49
2022-12-15T06:39:22.994Z,-1.47
2022-12-15T06:41:51.369Z,-1.46
2022-12-15T06:44:20.054Z,-1.45
2022-12-15T06:46:48.465Z,-1.43
2022-12-15T06:49:17.024Z,-1.41
2022-12-15T06:51:45.351Z,-1.41
2022-12-15T06:54:13.892Z,-1.41
2022-12-15T06:56:42.278Z,-1.43
2022-12-15T06:59:12.288Z,-1.44
2022-12-15T07:01:41.518Z,-1.45
2022-12-15T07:04:10.695Z,-1.45
2022-12-15T07:06:40.030Z,-1.46
2022-12-15T07:09:12.712Z,-1.44
2022-12-15T07:11:41.067Z,-1.43
2022-12-15T07:14:10.378Z,-1.42
2022-12-15T07:16:39.121Z,-1.43
2022-12-15T07:19:10.999Z,-1.44
2022-12-15T07:21:40.473Z,-1.43
2022-12-15T07:24:11.669Z,-1.43
2022-12-15T07:26:40.074Z,-1.42
2022-12-15T07:29:09.652Z,-1.39
2022-12-15T07:31:38.197Z,-1.37
2022-12-15T07:34:06.810Z,-1.37
2022-12-15T07:36:35.298Z,-1.37
2022-12-15T07:39:05.162Z,-1.36
2022-12-15T07:41:33.760Z,-1.35
2022-12-15T07:44:02.299Z,-1.35
2022-12-15T07:46:30.761Z,-1.35
2022-12-15T07:48:59.247Z,-1.35
2022-12-15T07:51:31.479Z,-1.34
2022-12-15T07:54:00.333Z,-1.33
2022-12-15T07:56:28.681Z,-1.34
2022-12-15T07:58:57.177Z,-1.33
2022-12-15T08:01:25.860Z,-1.33
2022-12-15T08:03:54.380Z,-1.33
2022-12-15T08:06:24.259Z,-1.33
2022-12-15T08:08:53.561Z,-1.34
2022-12-15T08:11:23.982Z,-1.33
2022-12-15T08:14:13.260Z,-1.31
2022-12-15T08:16:41.503Z,-1.28
2022-12-15T08:19:13.297Z,-1.25
2022-12-15T08:21:43.598Z,-1.21
2022-12-15T08:24:13.470Z,-1.18
2022-12-15T08:26:42.943Z,-1.15
2022-12-15T08:32:02.121Z,-1.10
2022-12-15T08:34:31.025Z,-1.06
2022-12-15T08:36:59.403Z,-1.03
2022-12-15T08:39:27.881Z,-0.99
2022-12-15T08:41:56.593Z,-0.97
2022-12-15T08:44:25.259Z,-0.95
2022-12-15T08:46:53.626Z,-0.94
2022-12-15T08:49:22.630Z,-0.97
2022-12-15T08:51:51.444Z,-0.97
2022-12-15T08:54:20.769Z,-0.98
2022-12-15T08:56:49.813Z,-0.99
2022-12-15T08:59:18.893Z,-0.97
2022-12-15T09:01:47.318Z,-0.95
2022-12-15T09:04:16.163Z,-0.95
2022-12-15T09:06:46.762Z,-0.95
2022-12-15T09:09:21.361Z,-0.92
2022-12-15T09:11:50.136Z,-0.92
2022-12-15T09:14:22.778Z,-0.93
2022-12-15T09:16:55.772Z,-0.95
2022-12-15T09:19:24.801Z,-0.95
2022-12-15T09:21:53.284Z,-0.95
2022-12-15T09:24:32.214Z,-0.92
2022-12-15T09:27:03.571Z,-0.88
2022-12-15T09:29:32.246Z,-0.84
2022-12-15T09:32:01.066Z,-0.83
2022-12-15T09:34:29.833Z,-0.82
2022-12-15T09:36:58.424Z,-0.79
2022-12-15T09:39:27.413Z,-0.77
2022-12-15T09:41:58.660Z,-0.74
2022-12-15T09:44:29.807Z,-0.74
2022-12-15T09:47:15.368Z,-0.75
2022-12-15T09:49:54.632Z,-0.78
2022-12-15T09:52:27.306Z,-0.82
2022-12-15T09:54:56.111Z,-0.86
2022-12-15T09:57:35.939Z,-0.89
2022-12-15T10:00:21.281Z,-0.93
2022-12-15T10:03:11.861Z,-0.94
2022-12-15T10:08:45.729Z,-0.96
2022-12-15T10:11:24.387Z,-0.99
2022-12-15T10:13:57.746Z,-1.02
2022-12-15T10:16:32.924Z,-1.03
2022-12-15T10:19:06.506Z,-1.01
2022-12-15T10:21:36.236Z,-0.99
2022-12-15T10:24:26.629Z,-0.99
2022-12-15T10:27:17.644Z,-0.97
2022-12-15T10:29:51.119Z,-0.95
2022-12-15T10:32:26.106Z,-0.95
2022-12-15T10:34:54.647Z,-1.00
2022-12-15T10:37:23.741Z,-1.02
2022-12-15T10:39:52.233Z,-1.02
2022-12-15T10:42:22.868Z,-1.02
2022-12-15T10:44:53.496Z,-1.04
2022-12-15T10:47:26.255Z,-1.05
2022-12-15T10:50:19.458Z,-1.08
2022-12-15T10:52:51.458Z,-1.11
2022-12-15T10:55:36.057Z,-1.12
2022-12-15T10:58:15.977Z,-1.12
2022-12-15T11:00:45.934Z,-1.11
2022-12-15T11:03:25.746Z,-1.11
2022-12-15T11:05:56.603Z,-1.11
2022-12-15T11:08:26.844Z,-1.13
2022-12-15T11:11:15.527Z,-1.15
2022-12-15T11:14:05.114Z,-1.20
2022-12-15T11:16:33.558Z,-1.28
2022-12-15T11:19:09.903Z,-1.31
2022-12-15T11:21:43.957Z,-1.37
2022-12-15T11:24:18.276Z,-1.41
2022-12-15T11:26:54.833Z,-1.46
2022-12-15T11:29:33.963Z,-1.48
2022-12-15T11:32:06.959Z,-1.50
2022-12-15T11:34:38.921Z,-1.54
2022-12-15T11:37:19.908Z,-1.55
2022-12-15T11:40:04.056Z,-1.56
2022-12-15T11:42:44.711Z,-1.56
2022-12-15T11:45:22.628Z,-1.57
2022-12-15T11:47:57.345Z,-1.59
2022-12-15T11:50:32.495Z,-1.61
2022-12-15T11:53:05.889Z,-1.63
2022-12-15T11:55:45.321Z,-1.65
2022-12-15T11:58:36.318Z,-1.67
2022-12-15T12:01:12.808Z,-1.73
2022-12-15T12:03:55.771Z,-1.77
2022-12-15T12:06:34.780Z,-1.78
2022-12-15T12:09:24.145Z,-1.79
2022-12-15T12:11:57.371Z,-1.77
2022-12-15T12:14:39.528Z,-1.75
2022-12-15T12:17:13.574Z,-1.73
2022-12-15T12:19:50.829Z,-1.70
2022-12-15T12:22:25.145Z,-1.69
2022-12-15T12:24:59.773Z,-1.68
2022-12-15T12:27:37.164Z,-1.66
2022-12-15T12:30:12.201Z,-1.62
2022-12-15T12:35:44.500Z,-1.61
2022-12-15T12:38:14.008Z,-1.59
2022-12-15T12:40:59.455Z,-1.60
2022-12-15T12:43:36.757Z,-1.60
2022-12-15T12:46:14.166Z,-1.58
2022-12-15T12:48:48.892Z,-1.59
2022-12-15T12:51:27.826Z,-1.58
2022-12-15T12:53:57.017Z,-1.58
2022-12-15T12:56:38.612Z,-1.56
2022-12-15T12:59:36.288Z,-1.53
2022-12-15T13:02:38.605Z,-1.50
2022-12-15T13:05:33.455Z,-1.48
2022-12-15T13:08:33.907Z,-1.46
2022-12-15T13:11:40.686Z,-1.45
2022-12-15T13:14:22.531Z,-1.43
2022-12-15T13:20:25.276Z,-1.39
2022-12-15T13:22:54.742Z,-1.36
2022-12-15T13:25:41.498Z,-1.34
2022-12-15T13:28:29.991Z,-1.32
2022-12-15T13:31:24.543Z,-1.32
2022-12-15T13:34:00.908Z,-1.31
2022-12-15T13:36:54.430Z,-1.30
2022-12-15T13:39:57.640Z,-1.32
2022-12-15T13:42:51.210Z,-1.32
2022-12-15T13:45:37.682Z,-1.32
2022-12-15T13:48:18.003Z,-1.32
2022-12-15T13:50:53.368Z,-1.32
2022-12-15T13:53:25.381Z,-1.34
2022-12-15T13:56:19.093Z,-1.35
2022-12-15T13:58:56.850Z,-1.40
2022-12-15T14:01:32.579Z,-1.43
2022-12-15T14:04:07.323Z,-1.43
2022-12-15T14:06:40.571Z,-1.45
2022-12-15T14:09:14.740Z,-1.49
2022-12-15T14:11:54.005Z,-1.54
2022-12-15T14:14:25.319Z,-1.56
2022-12-15T14:16:59.837Z,-1.57
2022-12-15T14:19:38.857Z,-1.58
2022-12-15T14:22:27.486Z,-1.62
2022-12-15T14:25:02.224Z,-1.65
2022-12-15T14:27:32.673Z,-1.66
2022-12-15T14:30:21.823Z,-1.66
2022-12-15T14:32:56.527Z,-1.68
2022-12-15T14:35:31.094Z,-1.71
2022-12-15T14:38:03.571Z,-1.73
2022-12-15T14:40:35.498Z,-1.76
2022-12-15T14:43:04.822Z,-1.76
2022-12-15T14:45:33.751Z,-1.76
2022-12-15T14:51:01.093Z,-1.82
2022-12-15T14:53:33.745Z,-1.83
2022-12-15T14:56:27.654Z,-1.86
2022-12-15T14:59:20.901Z,-1.90
2022-12-15T15:01:59.467Z,-1.92
2022-12-15T15:03:04.934Z,-1.61
2022-12-15T15:03:09.844Z,-1.41
2022-12-15T15:04:31.963Z,-1.94
2022-12-15T15:07:02.649Z,-1.96
2022-12-15T15:09:33.826Z,-1.99
2022-12-15T15:12:05.038Z,-1.99
2022-12-15T15:14:38.637Z,-1.99
2022-12-15T15:17:16.446Z,-2.01
2022-12-15T15:19:50.601Z,-2.01
2022-12-15T15:22:34.700Z,-2.05
2022-12-15T15:25:19.303Z,-2.10
2022-12-15T15:27:49.570Z,-2.15
2022-12-15T15:30:21.425Z,-2.15
2022-12-15T15:32:55.540Z,-2.18
2022-12-15T15:35:29.759Z,-2.21
2022-12-15T15:38:02.547Z,-2.24
2022-12-15T15:40:31.016Z,-2.27
2022-12-15T15:43:00.324Z,-2.26
2022-12-15T15:45:28.917Z,-2.23
2022-12-15T15:47:57.398Z,-2.22
2022-12-15T15:50:29.571Z,-2.19
2022-12-15T15:52:58.467Z,-2.16
2022-12-15T15:55:33.706Z,-2.14
2022-12-15T15:58:12.215Z,-2.11
2022-12-15T16:00:41.107Z,-2.09
2022-12-15T16:03:10.427Z,-2.07
2022-12-15T16:05:39.610Z,-2.07
2022-12-15T16:08:13.111Z,-2.05
2022-12-15T16:10:43.029Z,-2.02
2022-12-15T16:13:12.434Z,-2.02
2022-12-15T16:15:41.335Z,-2.01
2022-12-15T16:18:09.842Z,-2.01
2022-12-15T16:20:39.517Z,-2.01
2022-12-15T16:23:14.596Z,-2.00
2022-12-15T16:25:50.554Z,-2.00
2022-12-15T16:28:20.875Z,-2.02
2022-12-15T16:30:50.235Z,-2.04
2022-12-15T16:33:19.032Z,-2.06
2022-12-15T16:35:49.561Z,-2.08
2022-12-15T16:38:22.962Z,-2.10
2022-12-15T16:40:51.890Z,-2.12
2022-12-15T16:43:23.630Z,-2.15
2022-12-15T16:45:53.353Z,-2.15
2022-12-15T16:48:22.011Z,-2.12
2022-12-15T16:50:52.600Z,-2.10
2022-12-15T16:53:25.655Z,-2.07
2022-12-15T16:55:56.470Z,-2.07
2022-12-15T16:58:25.804Z,-2.05
2022-12-15T17:00:54.248Z,-2.02
2022-12-15T17:03:25.081Z,-2.00
2022-12-15T17:05:55.623Z,-1.98
2022-12-15T17:08:25.953Z,-1.94
2022-12-15T17:10:54.824Z,-1.91
2022-12-15T17:13:34.330Z,-1.87
2022-12-15T17:16:10.619Z,-1.84
2022-12-15T17:18:39.492Z,-1.84
2022-12-15T17:21:14.782Z,-1.85
2022-12-15T17:23:43.942Z,-1.87
2022-12-15T17:26:27.579Z,-1.89
2022-12-15T17:28:58.464Z,-1.89
2022-12-15T17:31:33.280Z,-1.86
2022-12-15T17:34:21.843Z,-1.84
2022-12-15T17:36:50.182Z,-1.83
2022-12-15T17:39:20.035Z,-1.82
2022-12-15T17:41:59.848Z,-1.80
2022-12-15T17:44:33.493Z,-1.80
2022-12-15T17:47:05.599Z,-1.80
2022-12-15T17:49:36.918Z,-1.80
2022-12-15T17:52:26.259Z,-1.79
2022-12-15T17:54:55.687Z,-1.76
2022-12-15T17:57:24.890Z,-1.72
2022-12-15T18:00:21.570Z,-1.67
2022-12-15T18:02:50.085Z,-1.62
2022-12-15T18:05:19.522Z,-1.60
2022-12-15T18:07:52.773Z,-1.58
2022-12-15T18:10:29.386Z,-1.55
2022-12-15T18:12:58.791Z,-1.53
2022-12-15T18:15:30.657Z,-1.52
2022-12-15T18:18:00.678Z,-1.52
2022-12-15T18:20:29.307Z,-1.50
2022-12-15T18:22:57.940Z,-1.51
2022-12-15T18:25:28.063Z,-1.51
2022-12-15T18:27:59.364Z,-1.50
2022-12-15T18:30:28.929Z,-1.49
2022-12-15T18:32:59.388Z,-1.49
2022-12-15T18:35:34.312Z,-1.49
2022-12-15T18:38:02.661Z,-1.49
2022-12-15T18:40:31.097Z,-1.51
2022-12-15T18:42:59.646Z,-1.52
2022-12-15T18:45:29.540Z,-1.52
2022-12-15T18:47:57.818Z,-1.53
2022-12-15T18:50:26.685Z,-1.54
2022-12-15T18:52:59.391Z,-1.53
2022-12-15T18:55:30.954Z,-1.53
2022-12-15T18:58:01.145Z,-1.52
2022-12-15T19:00:31.748Z,-1.53
2022-12-15T19:03:00.308Z,-1.54
2022-12-15T19:05:31.786Z,-1.54
2022-12-15T19:08:04.261Z,-1.53
2022-12-15T19:10:34.271Z,-1.52
2022-12-15T19:13:02.689Z,-1.51
2022-12-15T19:15:31.180Z,-1.51
2022-12-15T19:18:17.702Z,-1.52
2022-12-15T19:21:04.382Z,-1.52
2022-12-15T19:23:33.071Z,-1.51
2022-12-15T19:26:01.932Z,-1.54
2022-12-15T19:28:30.338Z,-1.57
2022-12-15T19:30:58.934Z,-1.58
2022-12-15T19:33:27.328Z,-1.56
2022-12-15T19:35:57.052Z,-1.55
2022-12-15T19:38:28.531Z,-1.57
2022-12-15T19:40:57.674Z,-1.57
2022-12-15T19:43:26.953Z,-1.55
2022-12-15T19:45:55.446Z,-1.53
2022-12-15T19:48:24.533Z,-1.50
2022-12-15T19:50:54.865Z,-1.48
2022-12-15T19:53:25.769Z,-1.44
2022-12-15T19:55:57.100Z,-1.41
2022-12-15T19:58:28.902Z,-1.40
2022-12-15T20:00:59.424Z,-1.40
2022-12-15T20:03:31.565Z,-1.38
2022-12-15T20:06:02.818Z,-1.36
2022-12-15T20:08:35.593Z,-1.35
2022-12-15T20:11:04.682Z,-1.36
2022-12-15T20:13:33.377Z,-1.32
2022-12-15T20:16:02.416Z,-1.31
2022-12-15T20:18:31.229Z,-1.31
2022-12-15T20:21:00.869Z,-1.30
2022-12-15T20:23:31.333Z,-1.30
2022-12-15T20:26:00.463Z,-1.31
2022-12-15T20:28:30.111Z,-1.32
2022-12-15T20:30:58.796Z,-1.36
2022-12-15T20:33:27.899Z,-1.40
2022-12-15T20:35:56.342Z,-1.40
2022-12-15T20:38:31.321Z,-1.40
2022-12-15T20:41:01.123Z,-1.40
2022-12-15T20:43:33.279Z,-1.40
2022-12-15T20:46:05.711Z,-1.40
2022-12-15T20:48:36.000Z,-1.38
2022-12-15T20:51:09.199Z,-1.37
2022-12-15T20:53:38.705Z,-1.38
2022-12-15T20:56:08.043Z,-1.39
2022-12-15T20:58:39.385Z,-1.42
2022-12-15T21:01:18.675Z,-1.43
2022-12-15T21:03:49.445Z,-1.46
2022-12-15T21:06:20.705Z,-1.48
2022-12-15T21:08:49.290Z,-1.51
2022-12-15T21:11:20.822Z,-1.55
2022-12-15T21:13:50.652Z,-1.59
2022-12-15T21:16:21.021Z,-1.62
2022-12-15T21:21:40.532Z,-1.67
2022-12-15T21:24:16.178Z,-1.72
2022-12-15T21:26:45.492Z,-1.75
2022-12-15T21:29:23.934Z,-1.78
2022-12-15T21:31:53.111Z,-1.79
2022-12-15T21:34:21.710Z,-1.77
2022-12-15T21:36:54.734Z,-1.76
2022-12-15T21:39:28.897Z,-1.73
2022-12-15T21:41:59.530Z,-1.70
2022-12-15T21:44:29.562Z,-1.69
2022-12-15T21:46:58.686Z,-1.69
2022-12-15T21:49:27.439Z,-1.67
2022-12-15T21:52:00.733Z,-1.66
2022-12-15T21:54:34.966Z,-1.64
2022-12-15T21:57:03.553Z,-1.62
2022-12-15T21:59:33.110Z,-1.60
2022-12-15T22:02:14.090Z,-1.61
2022-12-15T22:04:42.888Z,-1.61
2022-12-15T22:07:15.804Z,-1.62
2022-12-15T22:09:45.812Z,-1.64
2022-12-15T22:12:20.460Z,-1.65
2022-12-15T22:14:49.440Z,-1.64
2022-12-15T22:17:20.289Z,-1.64
2022-12-15T22:19:48.843Z,-1.64
2022-12-15T22:22:17.630Z,-1.64
2022-12-15T22:24:46.025Z,-1.65
2022-12-15T22:27:19.623Z,-1.68
2022-12-15T22:29:48.831Z,-1.76
2022-12-15T22:32:17.830Z,-1.83
2022-12-15T22:34:46.513Z,-1.87
2022-12-15T22:37:15.293Z,-1.91
2022-12-15T22:39:43.781Z,-1.94
2022-12-15T22:42:16.818Z,-1.99
2022-12-15T22:44:45.974Z,-2.01
2022-12-15T22:47:14.343Z,-2.04
2022-12-15T22:49:43.355Z,-2.07
2022-12-15T22:52:17.200Z,-2.10
2022-12-15T22:54:46.246Z,-2.12
2022-12-15T22:57:23.341Z,-2.15
2022-12-15T22:59:59.913Z,-2.17
2022-12-15T23:02:31.262Z,-2.19
2022-12-15T23:05:01.482Z,-2.24
2022-12-15T23:07:29.969Z,-2.27
2022-12-15T23:10:12.812Z,-2.26
2022-12-15T23:12:41.537Z,-2.27
2022-12-15T23:15:29.802Z,-2.27
2022-12-15T23:17:58.177Z,-2.26
2022-12-15T23:20:26.889Z,-2.25
2022-12-15T23:22:55.371Z,-2.26
2022-12-15T23:25:24.159Z,-2.29
2022-12-15T23:27:52.643Z,-2.29
2022-12-15T23:30:21.286Z,-2.31
2022-12-15T23:32:49.654Z,-2.33
2022-12-15T23:35:18.229Z,-2.32
2022-12-15T23:37:46.571Z,-2.33
2022-12-15T23:40:20.684Z,-2.33
2022-12-15T23:42:50.202Z,-2.35
2022-12-15T23:45:19.468Z,-2.35
2022-12-15T23:47:47.933Z,-2.37
2022-12-15T23:50:17.797Z,-2.40
2022-12-15T23:52:50.282Z,-2.40
2022-12-15T23:55:20.407Z,-2.40
2022-12-15T23:57:48.972Z,-2.40
